Time;durP1;ratioP1;P1;durP2;ratioP2;P2;SDS_P1;SDS_P2;PMS_P1;PMS_P2;Temp;Humidity;BMP_temperature;BMP_pressure;BME280_temperature;BME280_humidity;BME280_pressure;Samples;Min_cycle;Max_cycle;Signal;HPM_P1;HPM_P2
2022/01/08 00:00:05;;;;;;;9.93;5.80;;;;;;;;;;5026772;28;20473;-87
2022/01/08 00:02:31;;;;;;;8.50;5.50;;;;;;;;;;5026617;28;20461;-86
2022/01/08 00:04:58;;;;;;;7.60;6.17;;;;;;;;;;5028710;28;20488;-86
2022/01/08 00:07:24;;;;;;;10.23;6.00;;;;;;;;;;5026993;28;20462;-86
2022/01/08 00:09:52;;;;;;;9.20;6.37;;;;;;;;;;5027489;28;20476;-86
2022/01/08 00:12:18;;;;;;;8.30;5.70;;;;;;;;;;5026121;28;20464;-86
2022/01/08 00:14:45;;;;;;;5.80;5.20;;;;;;;;;;5029017;28;20488;-86
2022/01/08 00:17:11;;;;;;;6.90;5.77;;;;;;;;;;5028421;28;20508;-85
2022/01/08 00:19:37;;;;;;;8.30;5.63;;;;;;;;;;5028539;28;20481;-85
2022/01/08 00:22:04;;;;;;;10.07;6.40;;;;;;;;;;5028125;28;20480;-86
2022/01/08 00:24:30;;;;;;;10.00;7.00;;;;;;;;;;5029151;28;20486;-86
2022/01/08 00:26:58;;;;;;;16.17;8.20;;;;;;;;;;5029814;28;20511;-86
2022/01/08 00:29:24;;;;;;;10.17;8.20;;;;;;;;;;5029763;28;20469;-86
2022/01/08 00:31:50;;;;;;;14.47;8.30;;;;;;;;;;5029197;28;20993;-86
2022/01/08 00:34:16;;;;;;;12.60;9.20;;;;;;;;;;5028875;28;20515;-86
2022/01/08 00:36:42;;;;;;;13.30;9.30;;;;;;;;;;5030387;28;20481;-86
2022/01/08 00:39:09;;;;;;;16.17;10.70;;;;;;;;;;5028020;28;20456;-87
2022/01/08 00:41:35;;;;;;;19.83;12.17;;;;;;;;;;5027154;28;20457;-85
2022/01/08 00:44:03;;;;;;;23.60;11.00;;;;;;;;;;5026633;28;20457;-86
2022/01/08 00:46:29;;;;;;;15.53;10.63;;;;;;;;;;5023924;28;21041;-85
2022/01/08 00:48:55;;;;;;;16.70;11.40;;;;;;;;;;5021642;28;20468;-86
2022/01/08 00:51:22;;;;;;;18.97;11.37;;;;;;;;;;5022670;28;20450;-85
2022/01/08 00:53:48;;;;;;;20.90;10.43;;;;;;;;;;5022412;28;20465;-85
2022/01/08 00:56:14;;;;;;;19.40;11.60;;;;;;;;;;5022045;28;20477;-86
2022/01/08 00:58:41;;;;;;;17.00;11.07;;;;;;;;;;5023832;28;20537;-85
2022/01/08 01:01:09;;;;;;;16.43;11.10;;;;;;;;;;5021666;28;20561;-85
2022/01/08 01:03:35;;;;;;;17.87;11.90;;;;;;;;;;5024174;28;20458;-85
2022/01/08 01:06:01;;;;;;;26.97;13.40;;;;;;;;;;5022093;28;20849;-85
2022/01/08 01:08:28;;;;;;;19.60;12.60;;;;;;;;;;5023419;28;20464;-85
2022/01/08 01:10:54;;;;;;;21.33;13.67;;;;;;;;;;5018426;28;20530;-85
2022/01/08 01:13:20;;;;;;;23.93;13.77;;;;;;;;;;5022460;28;20453;-86
2022/01/08 01:15:46;;;;;;;23.07;14.60;;;;;;;;;;5020285;28;20476;-85
2022/01/08 01:18:14;;;;;;;22.10;15.00;;;;;;;;;;5023671;28;20508;-85
2022/01/08 01:20:40;;;;;;;21.30;14.60;;;;;;;;;;5022418;28;20494;-86
2022/01/08 01:23:11;;;;;;;28.10;13.87;;;;;;;;;;5022184;28;20472;-85
2022/01/08 01:25:41;;;;;;;28.77;16.77;;;;;;;;;;5020220;28;20485;-85
2022/01/08 01:28:30;;;;;;;23.00;15.67;;;;;;;;;;5021672;28;20467;-85
2022/01/08 01:41:09;;;;;;;27.80;16.30;;;;;;;;;;5020179;28;20500;-86
2022/01/08 01:47:33;;;;;;;28.77;17.30;;;;;;;;;;5022898;28;20563;-86
2022/01/08 01:50:01;;;;;;;31.00;18.07;;;;;;;;;;5023701;28;21014;-87
2022/01/08 01:52:28;;;;;;;26.13;16.40;;;;;;;;;;5020807;28;20629;-86
2022/01/08 01:54:54;;;;;;;33.37;18.20;;;;;;;;;;5022735;28;20485;-86
2022/01/08 01:57:21;;;;;;;26.90;16.50;;;;;;;;;;5021856;28;21030;-85
2022/01/08 01:59:47;;;;;;;22.50;15.73;;;;;;;;;;5020165;28;20527;-85
2022/01/08 02:02:13;;;;;;;28.13;16.13;;;;;;;;;;5023863;28;20465;-85
2022/01/08 02:04:40;;;;;;;29.27;16.10;;;;;;;;;;5024006;28;20482;-85
2022/01/08 02:07:09;;;;;;;30.57;16.47;;;;;;;;;;5024398;28;20935;-85
2022/01/08 02:09:37;;;;;;;25.43;15.80;;;;;;;;;;5018625;28;20469;-86
2022/01/08 02:12:04;;;;;;;26.03;16.27;;;;;;;;;;5022193;28;20462;-86
2022/01/08 02:14:32;;;;;;;28.40;15.40;;;;;;;;;;5022408;28;20496;-84
2022/01/08 02:16:58;;;;;;;26.37;15.20;;;;;;;;;;5024399;28;20489;-84
2022/01/08 02:19:25;;;;;;;30.87;16.67;;;;;;;;;;5020269;28;20471;-85
2022/01/08 02:21:53;;;;;;;29.47;15.50;;;;;;;;;;5022506;28;20471;-84
2022/01/08 02:24:20;;;;;;;25.70;15.27;;;;;;;;;;5021501;28;20473;-84
2022/01/08 02:26:46;;;;;;;24.70;15.40;;;;;;;;;;5080409;22;20493;-81
2022/01/08 02:29:13;;;;;;;24.70;13.63;;;;;;;;;;5004938;28;20461;-81
2022/01/08 02:31:39;;;;;;;23.53;15.00;;;;;;;;;;5006018;28;20451;-81
2022/01/08 02:34:06;;;;;;;21.80;15.13;;;;;;;;;;5006457;28;20524;-81
2022/01/08 02:36:32;;;;;;;22.83;15.20;;;;;;;;;;5020834;28;21031;-82
2022/01/08 02:39:00;;;;;;;31.07;15.37;;;;;;;;;;5025165;28;20488;-81
2022/01/08 02:41:27;;;;;;;24.77;14.80;;;;;;;;;;5023000;28;20469;-80
2022/01/08 02:43:53;;;;;;;24.93;15.90;;;;;;;;;;5023666;28;20839;-81
2022/01/08 02:46:20;;;;;;;27.03;16.07;;;;;;;;;;5025538;28;20477;-82
2022/01/08 02:48:46;;;;;;;23.00;14.77;;;;;;;;;;5022780;28;20446;-81
2022/01/08 02:51:12;;;;;;;28.00;15.70;;;;;;;;;;5024621;28;20538;-82
2022/01/08 02:53:38;;;;;;;29.50;17.30;;;;;;;;;;5025734;28;20456;-82
2022/01/08 02:56:06;;;;;;;28.93;15.10;;;;;;;;;;5022705;28;20543;-81
2022/01/08 02:58:32;;;;;;;24.60;16.60;;;;;;;;;;5025106;28;20464;-82
2022/01/08 03:00:59;;;;;;;24.33;15.70;;;;;;;;;;5023414;28;20526;-82
2022/01/08 03:03:25;;;;;;;23.77;15.37;;;;;;;;;;5023536;28;20457;-82
2022/01/08 03:05:52;;;;;;;29.93;17.90;;;;;;;;;;5025052;28;20488;-81
2022/01/08 03:08:18;;;;;;;27.70;16.43;;;;;;;;;;5023075;28;20974;-81
2022/01/08 03:10:44;;;;;;;25.50;15.90;;;;;;;;;;5020476;28;21005;-78
2022/01/08 03:13:12;;;;;;;28.90;16.40;;;;;;;;;;5021545;28;20471;-79
2022/01/08 03:15:39;;;;;;;25.57;15.67;;;;;;;;;;5021745;28;20481;-81
2022/01/08 03:18:06;;;;;;;32.53;16.33;;;;;;;;;;5023157;28;20580;-81
2022/01/08 03:20:33;;;;;;;30.47;17.93;;;;;;;;;;5022716;28;21075;-81
2022/01/08 03:23:03;;;;;;;26.57;16.00;;;;;;;;;;5024534;28;20476;-81
2022/01/08 03:25:29;;;;;;;27.07;16.97;;;;;;;;;;5022104;28;20867;-81
2022/01/08 03:27:56;;;;;;;24.83;15.70;;;;;;;;;;5023007;28;20460;-82
2022/01/08 03:30:24;;;;;;;27.97;16.50;;;;;;;;;;5023732;28;20485;-81
2022/01/08 03:32:51;;;;;;;24.73;15.40;;;;;;;;;;5021604;28;20496;-81
2022/01/08 03:35:17;;;;;;;24.37;15.37;;;;;;;;;;5023737;28;20489;-81
2022/01/08 03:37:44;;;;;;;27.50;17.17;;;;;;;;;;5024746;28;20616;-81
2022/01/08 03:40:10;;;;;;;26.70;16.07;;;;;;;;;;5024730;28;20488;-80
2022/01/08 03:42:36;;;;;;;26.00;16.00;;;;;;;;;;5021187;28;20456;-80
2022/01/08 03:45:03;;;;;;;28.70;18.33;;;;;;;;;;5021527;28;21043;-79
2022/01/08 03:47:52;;;;;;;25.20;15.03;;;;;;;;;;5023130;28;20866;-78
2022/01/08 03:50:18;;;;;;;27.57;16.40;;;;;;;;;;5020894;28;20468;-80
2022/01/08 03:52:45;;;;;;;33.27;18.37;;;;;;;;;;5021411;28;20960;-79
2022/01/08 03:55:12;;;;;;;27.87;16.57;;;;;;;;;;5020704;28;20511;-79
2022/01/08 03:57:38;;;;;;;28.67;17.10;;;;;;;;;;5023197;28;20480;-80
2022/01/08 04:00:05;;;;;;;22.67;14.30;;;;;;;;;;5020150;28;20476;-79
2022/01/08 04:02:33;;;;;;;29.47;15.40;;;;;;;;;;5020608;28;20464;-79
2022/01/08 04:04:59;;;;;;;23.57;15.83;;;;;;;;;;5016297;28;20493;-79
2022/01/08 04:07:25;;;;;;;23.23;14.37;;;;;;;;;;5023639;28;20874;-79
2022/01/08 04:09:51;;;;;;;28.23;15.13;;;;;;;;;;5020297;28;20504;-79
2022/01/08 04:12:28;;;;;;;24.73;15.97;;;;;;;;;;5022356;28;20454;-79
2022/01/08 04:15:05;;;;;;;27.77;16.60;;;;;;;;;;5020822;28;20496;-79
2022/01/08 04:17:32;;;;;;;26.83;15.60;;;;;;;;;;5022981;28;20531;-79
2022/01/08 04:19:58;;;;;;;25.17;16.50;;;;;;;;;;5023281;28;20480;-79
2022/01/08 04:22:26;;;;;;;25.97;16.60;;;;;;;;;;5029402;28;20947;-81
2022/01/08 04:24:52;;;;;;;26.10;16.20;;;;;;;;;;5028906;28;20484;-81
2022/01/08 04:27:19;;;;;;;35.13;17.90;;;;;;;;;;5028384;28;20469;-82
2022/01/08 04:29:45;;;;;;;29.63;16.73;;;;;;;;;;5026267;28;20555;-81
2022/01/08 04:32:11;;;;;;;30.33;18.60;;;;;;;;;;5027300;28;20452;-81
2022/01/08 04:34:39;;;;;;;31.57;18.10;;;;;;;;;;5028179;28;20499;-82
2022/01/08 04:37:05;;;;;;;26.70;16.90;;;;;;;;;;5029927;28;20488;-81
2022/01/08 04:39:32;;;;;;;28.20;17.23;;;;;;;;;;5027722;28;20472;-81
2022/01/08 04:41:58;;;;;;;27.80;16.93;;;;;;;;;;5028775;28;20840;-81
2022/01/08 04:44:24;;;;;;;29.73;17.63;;;;;;;;;;5028770;28;20467;-81
2022/01/08 04:46:50;;;;;;;29.70;18.27;;;;;;;;;;5029420;28;20485;-81
2022/01/08 04:49:16;;;;;;;26.63;17.40;;;;;;;;;;5028497;28;20465;-81
2022/01/08 04:51:44;;;;;;;31.30;17.67;;;;;;;;;;5025689;28;20470;-82
2022/01/08 04:54:10;;;;;;;31.07;18.00;;;;;;;;;;5027647;28;20460;-81
2022/01/08 04:56:37;;;;;;;31.50;17.70;;;;;;;;;;5026681;28;20485;-82
2022/01/08 04:59:03;;;;;;;34.30;19.10;;;;;;;;;;5027971;28;20453;-82
2022/01/08 05:01:29;;;;;;;30.77;17.50;;;;;;;;;;5027335;28;20455;-81
2022/01/08 05:03:56;;;;;;;24.17;15.80;;;;;;;;;;5028368;28;20829;-81
2022/01/08 05:06:22;;;;;;;31.50;19.57;;;;;;;;;;5025396;28;20481;-81
2022/01/08 05:08:49;;;;;;;28.67;17.67;;;;;;;;;;5025015;28;20495;-83
2022/01/08 05:11:16;;;;;;;26.73;17.33;;;;;;;;;;5024044;28;20477;-81
2022/01/08 05:13:44;;;;;;;34.20;19.13;;;;;;;;;;5025474;28;20449;-78
2022/01/08 05:16:10;;;;;;;28.77;17.87;;;;;;;;;;5020995;28;20591;-81
2022/01/08 05:18:37;;;;;;;28.10;18.00;;;;;;;;;;5024068;28;20488;-81
2022/01/08 05:21:16;;;;;;;28.40;17.30;;;;;;;;;;5024939;28;20480;-79
2022/01/08 05:23:42;;;;;;;34.30;19.27;;;;;;;;;;5024834;28;20450;-79
2022/01/08 05:26:10;;;;;;;30.47;18.00;;;;;;;;;;5025170;28;20493;-81
2022/01/08 05:28:36;;;;;;;32.83;17.43;;;;;;;;;;5022244;28;20954;-81
2022/01/08 05:31:03;;;;;;;30.27;18.93;;;;;;;;;;5022278;28;21219;-79
2022/01/08 05:33:29;;;;;;;31.57;20.60;;;;;;;;;;5022362;28;20979;-79
2022/01/08 05:35:55;;;;;;;35.03;20.33;;;;;;;;;;5020910;28;20893;-79
2022/01/08 05:38:21;;;;;;;36.97;21.63;;;;;;;;;;5023312;28;20484;-79
2022/01/08 05:40:48;;;;;;;38.63;20.23;;;;;;;;;;5022487;28;20480;-79
2022/01/08 05:43:15;;;;;;;38.30;22.23;;;;;;;;;;5024644;28;20454;-79
2022/01/08 05:45:42;;;;;;;38.77;20.43;;;;;;;;;;5021437;28;20511;-79
2022/01/08 05:48:09;;;;;;;35.00;19.87;;;;;;;;;;5023608;28;20500;-78
2022/01/08 05:50:35;;;;;;;34.50;20.00;;;;;;;;;;5022868;28;20568;-79
2022/01/08 05:53:01;;;;;;;31.30;18.30;;;;;;;;;;5021662;28;20461;-79
2022/01/08 05:55:27;;;;;;;36.40;20.30;;;;;;;;;;5022129;28;20480;-79
2022/01/08 05:57:54;;;;;;;34.97;20.67;;;;;;;;;;5021407;28;21175;-79
2022/01/08 06:00:21;;;;;;;35.50;20.30;;;;;;;;;;5022530;28;20888;-80
2022/01/08 06:02:48;;;;;;;32.43;19.93;;;;;;;;;;5023634;28;20469;-79
2022/01/08 06:05:14;;;;;;;37.33;21.73;;;;;;;;;;5021196;28;20484;-79
2022/01/08 06:07:40;;;;;;;41.53;20.60;;;;;;;;;;5022429;28;20449;-79
2022/01/08 06:10:06;;;;;;;39.80;20.00;;;;;;;;;;5023192;28;21014;-79
2022/01/08 06:12:33;;;;;;;28.80;17.50;;;;;;;;;;5023690;28;20442;-79
2022/01/08 06:14:59;;;;;;;32.63;18.47;;;;;;;;;;5022127;28;20484;-79
2022/01/08 06:17:27;;;;;;;33.87;20.80;;;;;;;;;;5023710;28;20507;-79
2022/01/08 06:19:53;;;;;;;34.20;19.17;;;;;;;;;;5020740;28;20510;-79
2022/01/08 06:22:19;;;;;;;25.77;17.43;;;;;;;;;;5019863;28;20460;-79
2022/01/08 06:24:46;;;;;;;28.90;19.00;;;;;;;;;;5021741;28;20476;-78
2022/01/08 06:27:12;;;;;;;34.07;19.10;;;;;;;;;;5021889;28;20461;-79
2022/01/08 06:29:38;;;;;;;31.43;17.87;;;;;;;;;;5021913;28;20892;-80
2022/01/08 06:32:05;;;;;;;30.90;19.27;;;;;;;;;;5021763;28;20492;-79
2022/01/08 06:34:32;;;;;;;28.07;17.90;;;;;;;;;;5020562;28;20523;-79
2022/01/08 06:36:59;;;;;;;31.97;17.83;;;;;;;;;;5022856;28;20494;-79
2022/01/08 06:39:25;;;;;;;34.17;19.00;;;;;;;;;;5020270;28;20915;-79
2022/01/08 06:41:51;;;;;;;29.43;17.93;;;;;;;;;;5020071;28;20868;-79
2022/01/08 06:44:17;;;;;;;27.27;16.33;;;;;;;;;;5021971;28;20542;-79
2022/01/08 06:46:44;;;;;;;27.20;16.57;;;;;;;;;;5021481;28;20480;-78
2022/01/08 06:49:10;;;;;;;24.27;15.40;;;;;;;;;;5021990;28;20448;-79
2022/01/08 06:51:38;;;;;;;26.43;17.10;;;;;;;;;;5021487;28;20465;-79
2022/01/08 06:54:04;;;;;;;23.83;13.97;;;;;;;;;;5020473;28;20458;-79
2022/01/08 06:56:30;;;;;;;20.20;13.70;;;;;;;;;;5023563;28;21277;-79
2022/01/08 06:58:56;;;;;;;24.37;14.50;;;;;;;;;;5021337;28;20485;-79
2022/01/08 07:01:23;;;;;;;26.60;13.80;;;;;;;;;;5022329;28;20449;-79
2022/01/08 07:03:50;;;;;;;25.13;14.83;;;;;;;;;;5023816;28;20837;-79
2022/01/08 07:06:16;;;;;;;20.17;12.63;;;;;;;;;;5019318;28;21023;-79
2022/01/08 07:08:43;;;;;;;25.93;15.53;;;;;;;;;;5021955;28;20449;-77
2022/01/08 07:11:10;;;;;;;22.80;14.73;;;;;;;;;;5020178;28;20477;-79
2022/01/08 07:13:36;;;;;;;25.43;14.23;;;;;;;;;;5021495;28;20508;-79
2022/01/08 07:16:03;;;;;;;23.77;15.13;;;;;;;;;;5021162;28;20542;-79
2022/01/08 07:18:29;;;;;;;26.13;15.10;;;;;;;;;;5021400;28;20547;-81
2022/01/08 07:20:55;;;;;;;25.03;15.13;;;;;;;;;;5022149;28;20481;-79
2022/01/08 07:23:22;;;;;;;30.53;15.60;;;;;;;;;;5023769;28;20456;-79
2022/01/08 07:25:50;;;;;;;27.43;15.30;;;;;;;;;;5021785;28;20555;-79
2022/01/08 07:28:16;;;;;;;25.10;15.20;;;;;;;;;;5020357;28;20506;-79
2022/01/08 07:30:42;;;;;;;22.90;14.40;;;;;;;;;;5021839;28;20534;-77
2022/01/08 07:33:08;;;;;;;22.90;14.37;;;;;;;;;;5021738;28;20507;-79
2022/01/08 07:35:35;;;;;;;20.93;13.77;;;;;;;;;;5019958;28;21025;-79
2022/01/08 07:38:01;;;;;;;24.13;16.43;;;;;;;;;;5020330;28;20496;-79
2022/01/08 07:40:27;;;;;;;23.43;14.03;;;;;;;;;;5022646;28;20487;-79
2022/01/08 07:42:55;;;;;;;20.83;13.73;;;;;;;;;;5022513;28;20569;-79
2022/01/08 07:45:22;;;;;;;26.27;14.70;;;;;;;;;;5022233;28;20971;-79
2022/01/08 07:47:48;;;;;;;22.97;14.40;;;;;;;;;;5021294;28;20974;-79
2022/01/08 07:50:15;;;;;;;26.03;15.10;;;;;;;;;;5022398;28;21046;-79
2022/01/08 07:52:42;;;;;;;29.00;15.57;;;;;;;;;;5023972;28;20473;-79
2022/01/08 07:55:09;;;;;;;25.43;16.17;;;;;;;;;;5023915;28;20473;-79
2022/01/08 07:57:36;;;;;;;23.40;14.33;;;;;;;;;;5023883;28;21032;-79
2022/01/08 08:00:04;;;;;;;28.23;15.63;;;;;;;;;;5025210;28;20530;-79
2022/01/08 08:02:30;;;;;;;29.50;15.87;;;;;;;;;;5023906;28;20472;-79
2022/01/08 08:04:56;;;;;;;22.37;14.17;;;;;;;;;;5024154;28;20470;-79
2022/01/08 08:07:29;;;;;;;23.47;14.80;;;;;;;;;;5025522;28;20441;-79
2022/01/08 08:09:55;;;;;;;24.60;13.63;;;;;;;;;;5021927;28;20477;-79
2022/01/08 08:12:22;;;;;;;21.63;13.70;;;;;;;;;;5025656;28;20470;-79
2022/01/08 08:14:48;;;;;;;22.93;14.40;;;;;;;;;;5024907;28;20464;-79
2022/01/08 08:17:16;;;;;;;21.17;14.13;;;;;;;;;;5025552;28;20954;-79
2022/01/08 08:19:42;;;;;;;25.53;16.23;;;;;;;;;;5022388;28;20480;-77
2022/01/08 08:22:09;;;;;;;24.20;15.33;;;;;;;;;;5026261;28;20458;-79
2022/01/08 08:24:35;;;;;;;26.73;14.80;;;;;;;;;;5024215;28;20495;-79
2022/01/08 08:27:01;;;;;;;24.63;14.60;;;;;;;;;;5025464;28;20585;-79
2022/01/08 08:29:27;;;;;;;22.30;14.53;;;;;;;;;;5023150;28;20461;-79
2022/01/08 08:31:54;;;;;;;25.23;15.50;;;;;;;;;;5019415;28;20461;-79
2022/01/08 08:34:21;;;;;;;26.27;14.20;;;;;;;;;;5020373;28;20488;-79
2022/01/08 08:36:47;;;;;;;23.50;14.50;;;;;;;;;;5022409;28;20484;-78
2022/01/08 08:39:14;;;;;;;24.87;14.83;;;;;;;;;;5026326;28;20472;-79
2022/01/08 08:41:40;;;;;;;28.93;17.33;;;;;;;;;;5025567;28;20496;-79
2022/01/08 08:44:06;;;;;;;23.23;15.47;;;;;;;;;;5023232;28;20460;-79
2022/01/08 08:46:33;;;;;;;24.43;15.17;;;;;;;;;;5025785;28;20496;-79
2022/01/08 08:48:59;;;;;;;45.87;15.90;;;;;;;;;;5023689;28;20468;-79
2022/01/08 08:51:26;;;;;;;25.87;15.70;;;;;;;;;;5025067;28;20457;-78
2022/01/08 08:53:53;;;;;;;34.47;16.93;;;;;;;;;;5025650;28;20445;-79
2022/01/08 08:56:19;;;;;;;28.80;15.63;;;;;;;;;;5025178;28;20477;-79
2022/01/08 08:58:46;;;;;;;24.13;15.10;;;;;;;;;;5024797;28;20483;-78
2022/01/08 09:01:12;;;;;;;20.33;13.90;;;;;;;;;;5024751;28;20470;-79
2022/01/08 09:03:38;;;;;;;23.50;15.27;;;;;;;;;;5023662;28;20465;-79
2022/01/08 09:06:04;;;;;;;28.77;15.47;;;;;;;;;;5025249;28;20519;-79
2022/01/08 09:08:32;;;;;;;27.57;15.43;;;;;;;;;;5024607;28;20593;-79
2022/01/08 09:10:58;;;;;;;24.50;14.60;;;;;;;;;;5026162;28;20474;-79
2022/01/08 09:13:26;;;;;;;25.50;15.13;;;;;;;;;;5026001;28;20476;-79
2022/01/08 09:15:52;;;;;;;21.03;13.73;;;;;;;;;;5024464;28;20541;-79
2022/01/08 09:18:18;;;;;;;22.70;15.40;;;;;;;;;;5021414;28;20489;-79
2022/01/08 09:20:44;;;;;;;28.20;16.03;;;;;;;;;;5024581;28;20465;-79
2022/01/08 09:23:11;;;;;;;25.83;15.50;;;;;;;;;;5025964;28;20438;-80
2022/01/08 09:25:38;;;;;;;27.47;13.83;;;;;;;;;;5026550;28;20482;-81
2022/01/08 09:28:05;;;;;;;31.20;15.10;;;;;;;;;;5024754;28;20500;-79
2022/01/08 09:30:31;;;;;;;25.10;14.93;;;;;;;;;;5020960;28;20531;-79
2022/01/08 09:32:58;;;;;;;31.60;17.50;;;;;;;;;;5020698;28;20461;-79
2022/01/08 09:35:25;;;;;;;27.83;15.00;;;;;;;;;;5024001;28;20884;-80
2022/01/08 09:37:52;;;;;;;23.13;14.30;;;;;;;;;;5023528;28;20864;-80
2022/01/08 09:40:19;;;;;;;28.53;15.77;;;;;;;;;;5021605;28;20473;-79
2022/01/08 09:42:46;;;;;;;24.20;15.50;;;;;;;;;;5022782;28;20453;-78
2022/01/08 09:45:13;;;;;;;23.73;15.23;;;;;;;;;;5022075;28;20477;-79
2022/01/08 09:47:39;;;;;;;27.80;16.30;;;;;;;;;;5023071;28;20449;-79
2022/01/08 09:50:06;;;;;;;24.07;16.80;;;;;;;;;;5020230;28;20520;-79
2022/01/08 09:52:33;;;;;;;23.80;15.40;;;;;;;;;;5020769;28;20457;-80
2022/01/08 09:54:59;;;;;;;22.17;14.40;;;;;;;;;;5022202;28;20484;-79
2022/01/08 09:57:25;;;;;;;30.70;14.60;;;;;;;;;;5021922;28;20454;-79
2022/01/08 09:59:53;;;;;;;23.23;16.33;;;;;;;;;;5021185;28;20465;-78
2022/01/08 10:02:20;;;;;;;25.10;14.60;;;;;;;;;;5023212;28;20453;-79
2022/01/08 10:04:47;;;;;;;23.97;15.63;;;;;;;;;;5016404;28;20464;-77
2022/01/08 10:07:14;;;;;;;25.07;16.23;;;;;;;;;;5021875;28;20472;-79
2022/01/08 10:09:57;;;;;;;23.00;15.10;;;;;;;;;;5022394;28;20484;-79
2022/01/08 10:12:34;;;;;;;27.70;16.60;;;;;;;;;;5021560;28;20451;-79
2022/01/08 10:17:46;;;;;;;21.60;14.90;;;;;;;;;;5013571;28;20455;-80
2022/01/08 10:20:12;;;;;;;22.90;14.53;;;;;;;;;;5019044;28;21207;-79
2022/01/08 10:22:39;;;;;;;20.77;13.90;;;;;;;;;;5017003;28;20514;-79
2022/01/08 10:25:11;;;;;;;24.40;15.53;;;;;;;;;;5022925;28;21080;-80
2022/01/08 10:27:37;;;;;;;24.50;14.57;;;;;;;;;;5023308;28;20870;-80
2022/01/08 10:30:06;;;;;;;22.23;15.93;;;;;;;;;;5020844;28;20476;-78
2022/01/08 10:32:32;;;;;;;26.93;16.00;;;;;;;;;;5018549;28;20452;-78
2022/01/08 10:34:58;;;;;;;20.13;14.80;;;;;;;;;;5017173;28;20469;-79
2022/01/08 10:37:24;;;;;;;21.03;14.00;;;;;;;;;;5013760;28;20523;-78
2022/01/08 10:39:55;;;;;;;23.70;15.00;;;;;;;;;;5019591;28;20499;-78
2022/01/08 10:42:21;;;;;;;20.50;15.13;;;;;;;;;;5019110;28;20472;-78
2022/01/08 10:44:49;;;;;;;23.33;14.10;;;;;;;;;;5016738;28;20507;-75
2022/01/08 10:47:18;;;;;;;20.40;15.73;;;;;;;;;;5015059;28;20479;-78
2022/01/08 10:49:45;;;;;;;17.60;12.90;;;;;;;;;;5019058;28;20532;-78
2022/01/08 10:52:13;;;;;;;19.20;13.37;;;;;;;;;;5015038;28;20507;-78
2022/01/08 10:54:40;;;;;;;25.03;13.37;;;;;;;;;;5018471;28;20903;-78
2022/01/08 10:57:08;;;;;;;20.07;13.37;;;;;;;;;;5017295;28;20481;-79
2022/01/08 10:59:35;;;;;;;21.93;11.90;;;;;;;;;;5018913;28;20481;-78
2022/01/08 11:02:02;;;;;;;24.90;14.00;;;;;;;;;;5015244;28;20472;-78
2022/01/08 11:04:38;;;;;;;22.77;13.67;;;;;;;;;;5017487;28;20905;-78
2022/01/08 11:07:05;;;;;;;20.43;13.80;;;;;;;;;;5016163;28;20890;-78
2022/01/08 11:09:32;;;;;;;21.97;13.10;;;;;;;;;;5015865;28;20547;-79
2022/01/08 11:11:59;;;;;;;23.13;13.80;;;;;;;;;;5018000;28;20465;-79
2022/01/08 11:17:13;;;;;;;24.80;19.07;;;;;;;;;;5018061;28;20464;-79
2022/01/08 11:19:45;;;;;;;21.20;13.70;;;;;;;;;;5018693;28;20531;-79
2022/01/08 11:22:12;;;;;;;20.23;13.83;;;;;;;;;;5019165;28;20468;-79
2022/01/08 11:24:40;;;;;;;21.93;14.90;;;;;;;;;;5019687;28;20452;-79
2022/01/08 11:27:07;;;;;;;14.53;12.93;;;;;;;;;;5019262;28;20488;-78
2022/01/08 11:29:34;;;;;;;20.77;13.60;;;;;;;;;;5023096;28;20480;-78
2022/01/08 11:32:03;;;;;;;18.10;12.80;;;;;;;;;;5021418;28;20469;-79
2022/01/08 11:34:30;;;;;;;22.27;13.60;;;;;;;;;;5022467;28;20668;-78
2022/01/08 11:36:59;;;;;;;19.20;13.93;;;;;;;;;;5020170;28;20490;-78
2022/01/08 11:39:27;;;;;;;20.30;13.37;;;;;;;;;;5023332;28;20469;-78
2022/01/08 11:41:55;;;;;;;21.87;14.60;;;;;;;;;;5019190;28;20492;-79
2022/01/08 11:44:21;;;;;;;24.83;13.97;;;;;;;;;;5023187;28;20469;-78
2022/01/08 11:46:48;;;;;;;18.87;13.70;;;;;;;;;;5017612;28;20543;-78
2022/01/08 11:49:15;;;;;;;58.43;15.43;;;;;;;;;;5022749;28;20477;-78
2022/01/08 11:51:41;;;;;;;16.87;14.20;;;;;;;;;;5025331;28;20456;-79
2022/01/08 11:54:09;;;;;;;19.17;14.60;;;;;;;;;;5019668;28;20523;-78
2022/01/08 11:56:37;;;;;;;20.03;14.50;;;;;;;;;;5021016;28;20493;-78
2022/01/08 11:59:05;;;;;;;23.57;14.30;;;;;;;;;;5019041;28;20469;-78
2022/01/08 12:01:32;;;;;;;17.80;13.77;;;;;;;;;;5022263;28;20461;-78
2022/01/08 12:03:58;;;;;;;22.03;14.40;;;;;;;;;;5022690;28;20440;-78
2022/01/08 12:06:32;;;;;;;25.47;12.80;;;;;;;;;;5023640;28;20539;-78
2022/01/08 12:09:07;;;;;;;22.93;14.17;;;;;;;;;;5021178;28;20472;-79
2022/01/08 12:11:49;;;;;;;16.83;13.70;;;;;;;;;;5021666;28;20453;-78
2022/01/08 12:14:16;;;;;;;27.27;16.07;;;;;;;;;;5022048;28;20531;-78
2022/01/08 12:16:43;;;;;;;19.67;14.00;;;;;;;;;;5018915;28;20539;-78
2022/01/08 12:19:10;;;;;;;24.70;14.63;;;;;;;;;;5021439;28;20507;-79
2022/01/08 12:21:38;;;;;;;22.67;15.20;;;;;;;;;;5021049;28;20545;-77
2022/01/08 12:24:22;;;;;;;23.60;14.17;;;;;;;;;;5022003;28;20460;-79
2022/01/08 12:26:49;;;;;;;25.20;13.90;;;;;;;;;;5019734;28;20488;-78
2022/01/08 12:29:31;;;;;;;24.50;15.00;;;;;;;;;;5020741;28;20488;-78
2022/01/08 12:32:20;;;;;;;25.87;16.27;;;;;;;;;;5019714;28;20474;-80
2022/01/08 12:34:49;;;;;;;20.37;12.57;;;;;;;;;;5024022;28;20482;-78
2022/01/08 12:37:16;;;;;;;19.50;12.97;;;;;;;;;;5021211;28;20534;-78
2022/01/08 12:39:47;;;;;;;19.27;13.90;;;;;;;;;;5022876;28;21025;-76
2022/01/08 12:42:37;;;;;;;21.40;14.30;;;;;;;;;;5020666;28;20458;-78
2022/01/08 12:45:06;;;;;;;21.23;13.50;;;;;;;;;;5021566;28;20474;-78
2022/01/08 12:47:42;;;;;;;18.17;13.60;;;;;;;;;;5022681;28;20463;-78
2022/01/08 12:50:42;;;;;;;18.40;13.93;;;;;;;;;;5019843;28;20552;-78
2022/01/08 12:53:19;;;;;;;16.37;12.90;;;;;;;;;;4943557;28;20448;-78
2022/01/08 12:56:02;;;;;;;20.60;13.87;;;;;;;;;;4943086;28;20487;-79
2022/01/08 12:58:30;;;;;;;26.73;13.07;;;;;;;;;;4991069;28;20483;-79
2022/01/08 13:00:58;;;;;;;30.90;17.70;;;;;;;;;;5020600;28;20491;-77
2022/01/08 13:03:24;;;;;;;21.10;14.13;;;;;;;;;;5020386;28;20469;-79
2022/01/08 13:05:51;;;;;;;22.23;13.20;;;;;;;;;;5022935;28;20489;-81
2022/01/08 13:08:24;;;;;;;24.03;15.10;;;;;;;;;;5024865;28;20483;-81
2022/01/08 13:10:54;;;;;;;24.33;14.10;;;;;;;;;;5024227;28;20477;-80
2022/01/08 13:13:21;;;;;;;21.30;11.30;;;;;;;;;;5023885;28;20481;-81
2022/01/08 13:15:49;;;;;;;27.43;16.97;;;;;;;;;;5025124;28;20538;-81
2022/01/08 13:18:19;;;;;;;24.77;15.40;;;;;;;;;;5023949;28;20464;-81
2022/01/08 13:20:45;;;;;;;21.43;13.67;;;;;;;;;;5025215;28;20474;-82
2022/01/08 13:23:11;;;;;;;24.53;14.10;;;;;;;;;;5022951;28;20454;-78
2022/01/08 13:25:38;;;;;;;26.77;13.43;;;;;;;;;;5020350;28;20531;-79
2022/01/08 13:28:04;;;;;;;21.53;13.07;;;;;;;;;;5021017;28;20469;-78
2022/01/08 13:30:30;;;;;;;20.67;11.80;;;;;;;;;;5020893;28;21017;-80
2022/01/08 13:33:01;;;;;;;15.70;11.20;;;;;;;;;;5024396;28;20524;-81
2022/01/08 13:35:27;;;;;;;22.40;13.20;;;;;;;;;;5022525;28;20477;-81
2022/01/08 13:37:54;;;;;;;25.80;12.93;;;;;;;;;;5024401;28;20448;-81
2022/01/08 13:40:20;;;;;;;16.93;12.17;;;;;;;;;;5024489;28;20519;-81
2022/01/08 13:42:46;;;;;;;24.33;14.53;;;;;;;;;;5023591;28;20522;-78
2022/01/08 13:45:13;;;;;;;19.53;13.90;;;;;;;;;;5019839;28;20516;-78
2022/01/08 13:47:41;;;;;;;21.83;14.57;;;;;;;;;;5021189;28;20457;-79
2022/01/08 13:50:13;;;;;;;21.83;14.30;;;;;;;;;;5018253;28;21039;-79
2022/01/08 13:52:40;;;;;;;18.67;13.93;;;;;;;;;;5022019;28;20872;-79
2022/01/08 13:55:22;;;;;;;27.33;15.63;;;;;;;;;;5018928;28;20511;-79
2022/01/08 13:57:52;;;;;;;23.07;14.80;;;;;;;;;;5017969;28;20461;-79
2022/01/08 14:00:21;;;;;;;23.63;16.43;;;;;;;;;;5019517;28;20484;-78
2022/01/08 14:02:48;;;;;;;26.80;15.83;;;;;;;;;;5021492;28;20507;-79
2022/01/08 14:05:16;;;;;;;33.17;17.77;;;;;;;;;;5021059;28;20477;-79
2022/01/08 14:07:42;;;;;;;39.00;16.87;;;;;;;;;;5020082;28;20445;-76
2022/01/08 14:10:10;;;;;;;30.30;17.40;;;;;;;;;;5017338;28;20473;-78
2022/01/08 14:12:36;;;;;;;28.23;16.80;;;;;;;;;;5018692;28;20519;-78
2022/01/08 14:15:04;;;;;;;29.80;17.30;;;;;;;;;;5019773;28;20472;-79
2022/01/08 14:17:31;;;;;;;25.87;16.47;;;;;;;;;;5018893;28;20465;-79
2022/01/08 14:19:58;;;;;;;28.93;16.97;;;;;;;;;;5019654;28;20477;-79
2022/01/08 14:22:27;;;;;;;29.67;18.23;;;;;;;;;;5019562;28;20834;-78
2022/01/08 14:24:53;;;;;;;27.37;18.90;;;;;;;;;;5014754;28;20481;-79
2022/01/08 14:27:22;;;;;;;35.60;19.47;;;;;;;;;;5020529;28;20469;-77
2022/01/08 14:29:49;;;;;;;34.83;20.53;;;;;;;;;;5018897;28;20473;-79
2022/01/08 14:32:16;;;;;;;40.20;23.13;;;;;;;;;;5019398;28;20454;-80
2022/01/08 14:34:43;;;;;;;44.50;21.00;;;;;;;;;;5020617;28;20564;-79
2022/01/08 14:37:14;;;;;;;42.33;22.90;;;;;;;;;;5020492;28;20480;-79
2022/01/08 14:39:42;;;;;;;40.87;20.63;;;;;;;;;;5017156;28;20507;-79